Rochefort, Belgium
Current Conditions -  °F | °C
As of 2:55 AM on Sunday 21 Dec 2014 (Local Time) from EBFS Reporting Station
Few Clouds Few Clouds  
Wind Chill: 32°   Ceiling: Unl
Heat Index: 37°   Visibility: 6mi
Dew Point: 36°   Wind: 7mph
Humidity: 93%   Direction: 250°WSW
Pressure: 30.45"   Gusts: NA
Location:  50.16°N, 5.22°E
Report Text: EBFS 210155Z AUTO 25006KT 9999 FEW190/// 03/02 Q1031 BLU
Loading
Personal Weather Stations






























Interactive Weather Map New forecast layout! Learn more

10-Day Weather Forecast

Advertisements
Track Severe Weather on mobile